Time;durP1;ratioP1;P1;durP2;ratioP2;P2;SDS_P1;SDS_P2;PMS_P1;PMS_P2;Temp;Humidity;BMP_temperature;BMP_pressure;BME280_temperature;BME280_humidity;BME280_pressure;Samples;Min_cycle;Max_cycle;Signal;HPM_P1;HPM_P2
2021/11/18 00:00:26;;;;;;;;;25.50;24.50;;;;;12.50;64.29;102380.78;2093779;27;47122;-64
2021/11/18 00:01:29;;;;;;;;;24.00;23.40;;;;;12.50;64.40;102388.78;2090899;28;48164;-62
2021/11/18 00:02:29;;;;;;;;;22.60;22.60;;;;;12.49;64.47;102382.56;2085477;27;47938;-63
2021/11/18 00:03:30;;;;;;;;;21.50;21.25;;;;;12.50;64.52;102379.00;2091000;28;46984;-63
2021/11/18 00:04:31;;;;;;;;;21.25;21.25;;;;;12.49;64.41;102379.91;2102945;27;46127;-62
2021/11/18 00:05:32;;;;;;;;;24.00;23.40;;;;;12.49;64.41;102382.56;2094226;27;47273;-63
2021/11/18 00:06:33;;;;;;;;;24.00;23.00;;;;;12.50;64.57;102378.13;2095568;27;47240;-63
2021/11/18 00:07:34;;;;;;;;;25.25;23.50;;;;;12.49;64.47;102384.34;2093553;28;47148;-63
2021/11/18 00:08:34;;;;;;;;;25.25;25.00;;;;;12.50;64.43;102386.09;2099703;28;46245;-63
2021/11/18 00:09:35;;;;;;;;;25.25;22.25;;;;;12.49;64.55;102387.88;2098042;27;45321;-63
2021/11/18 00:10:39;;;;;;;;;24.25;24.25;;;;;12.49;64.55;102387.88;2097771;27;47435;-63
2021/11/18 00:11:40;;;;;;;;;20.80;20.40;;;;;12.50;64.35;102394.09;2084158;28;45384;-63
2021/11/18 00:12:41;;;;;;;;;24.25;24.00;;;;;12.48;64.43;102380.78;2094169;28;46209;-63
2021/11/18 00:13:51;;;;;;;;;24.75;21.50;;;;;12.46;64.48;102379.91;2095025;27;46688;-62
2021/11/18 00:14:52;;;;;;;;;20.80;20.60;;;;;12.45;64.38;102380.81;2099550;27;47904;-64
2021/11/18 00:15:54;;;;;;;;;20.50;18.00;;;;;12.45;64.55;102385.22;2097034;27;46791;-62
2021/11/18 00:16:54;;;;;;;;;24.40;21.60;;;;;12.45;64.53;102379.88;2079886;28;46588;-63
2021/11/18 00:18:01;;;;;;;;;21.75;21.50;;;;;12.43;64.63;102377.22;2091177;28;47162;-63
2021/11/18 00:19:04;;;;;;;;;28.20;25.00;;;;;12.43;64.51;102379.91;2097731;28;47106;-64
2021/11/18 00:20:07;;;;;;;;;23.60;23.20;;;;;12.43;64.55;102382.56;2097935;28;45479;-64
2021/11/18 00:21:24;;;;;;;;;26.80;25.20;;;;;12.42;64.65;102377.25;2098287;28;47426;-63
2021/11/18 00:22:24;;;;;;;;;24.80;22.40;;;;;12.41;64.65;102384.34;2096282;28;46356;-63
2021/11/18 00:23:29;;;;;;;;;27.25;22.75;;;;;12.40;64.58;102387.03;2096844;28;48535;-63
2021/11/18 00:24:30;;;;;;;;;27.80;24.80;;;;;12.38;64.54;102389.69;2100163;27;45555;-64
2021/11/18 00:25:31;;;;;;;;;23.00;23.00;;;;;12.38;64.51;102392.34;2093217;27;46832;-64
2021/11/18 00:26:32;;;;;;;;;27.00;24.00;;;;;12.35;64.72;102387.03;2090977;28;46971;-63
2021/11/18 00:27:33;;;;;;;;;23.00;22.00;;;;;12.34;64.53;102385.28;2098406;28;48428;-63
2021/11/18 00:28:34;;;;;;;;;26.50;25.50;;;;;12.33;64.65;102379.06;2097880;28;45573;-63
2021/11/18 00:29:34;;;;;;;;;26.50;26.50;;;;;12.32;64.67;102384.34;2098875;28;47046;-63
2021/11/18 00:30:35;;;;;;;;;22.50;22.50;;;;;12.32;64.82;102384.34;2097143;28;48595;-63
2021/11/18 00:31:39;;;;;;;;;23.40;22.40;;;;;12.31;64.69;102385.25;2097272;27;46954;-64
2021/11/18 00:32:40;;;;;;;;;25.60;24.60;;;;;12.30;64.65;102381.72;2099717;27;48459;-63
2021/11/18 00:33:41;;;;;;;;;24.20;23.40;;;;;12.29;64.79;102379.06;2097077;28;47559;-64
2021/11/18 00:34:42;;;;;;;;;22.80;22.20;;;;;12.28;64.59;102375.50;2097146;28;48516;-64
2021/11/18 00:35:43;;;;;;;;;24.20;23.80;;;;;12.28;64.85;102372.84;2099632;27;48024;-63
2021/11/18 00:36:45;;;;;;;;;24.00;24.00;;;;;12.27;64.83;102368.41;2097878;27;47493;-63
2021/11/18 00:37:47;;;;;;;;;25.00;24.40;;;;;12.26;64.84;102369.31;2099121;27;46418;-64
2021/11/18 00:38:48;;;;;;;;;26.20;26.00;;;;;12.26;64.85;102365.75;2099161;28;48299;-64
2021/11/18 00:39:48;;;;;;;;;24.00;23.50;;;;;12.23;65.09;102361.34;2099414;27;48284;-63
2021/11/18 00:40:52;;;;;;;;;19.75;18.00;;;;;12.23;64.89;102361.34;2100639;27;47513;-64
2021/11/18 00:41:52;;;;;;;;;23.80;22.40;;;;;12.23;64.93;102360.44;2097368;27;47055;-63
2021/11/18 00:42:53;;;;;;;;;16.50;16.25;;;;;12.22;64.92;102356.00;2088339;28;45201;-64
2021/11/18 00:43:54;;;;;;;;;22.60;22.60;;;;;12.21;64.89;102352.47;2089871;28;47609;-63
2021/11/18 00:44:57;;;;;;;;;24.00;22.00;;;;;12.21;64.86;102347.16;2097725;28;47148;-63
2021/11/18 00:45:58;;;;;;;;;23.00;22.40;;;;;12.22;65.03;102348.03;2102681;27;48143;-63
2021/11/18 00:46:59;;;;;;;;;23.60;21.80;;;;;12.21;64.55;102346.25;2092294;28;48087;-63
2021/11/18 00:48:00;;;;;;;;;21.25;21.00;;;;;12.20;64.86;102350.69;2092603;28;48587;-63
2021/11/18 00:49:02;;;;;;;;;22.60;21.60;;;;;12.19;64.76;102345.34;2092610;28;46409;-63
2021/11/18 00:50:04;;;;;;;;;23.60;22.40;;;;;12.18;64.77;102343.59;2092621;27;46936;-63
2021/11/18 00:51:08;;;;;;;;;20.00;20.00;;;;;12.18;64.77;102346.25;2092580;28;47315;-63
2021/11/18 00:52:09;;;;;;;;;21.60;20.40;;;;;12.17;64.74;102345.34;2092748;28;47451;-62
2021/11/18 00:53:10;;;;;;;;;26.50;25.00;;;;;12.16;65.02;102343.59;2091665;28;48029;-63
2021/11/18 00:54:10;;;;;;;;;22.00;19.00;;;;;12.16;64.96;102348.03;2091945;28;46977;-63
2021/11/18 00:55:12;;;;;;;;;25.75;24.50;;;;;12.15;64.83;102347.16;2091720;28;47000;-63
2021/11/18 00:56:14;;;;;;;;;22.80;21.80;;;;;12.14;64.94;102342.72;2090397;28;48374;-63
2021/11/18 00:57:14;;;;;;;;;22.00;20.80;;;;;12.13;64.72;102354.25;2086560;28;47519;-63
2021/11/18 00:58:15;;;;;;;;;18.00;16.50;;;;;12.11;64.99;102350.72;2090216;27;45650;-63
2021/11/18 00:59:16;;;;;;;;;22.80;18.80;;;;;12.11;65.04;102352.50;2085261;28;47185;-63
2021/11/18 01:00:24;;;;;;;;;23.00;18.75;;;;;12.10;65.02;102348.06;2092435;27;48162;-62
2021/11/18 01:01:31;;;;;;;;;18.20;18.20;;;;;12.10;65.08;102345.41;2092082;27;47396;-63
2021/11/18 01:02:32;;;;;;;;;21.60;20.20;;;;;12.09;64.99;102347.16;2090626;28;47718;-62
2021/11/18 01:03:33;;;;;;;;;22.50;21.25;;;;;12.08;65.03;102346.28;2091600;28;47529;-63
2021/11/18 01:04:34;;;;;;;;;22.00;20.20;;;;;12.07;65.14;102346.28;2091589;28;47482;-62
2021/11/18 01:05:38;;;;;;;;;30.00;24.25;;;;;12.09;65.17;102349.84;2092510;28;47348;-62
2021/11/18 01:06:38;;;;;;;;;22.00;21.00;;;;;12.08;65.12;102348.06;2085084;28;45297;-62
2021/11/18 01:07:41;;;;;;;;;26.25;20.75;;;;;12.08;65.07;102353.38;2100828;28;45154;-62
2021/11/18 01:08:42;;;;;;;;;21.80;18.60;;;;;12.07;64.81;102340.97;2099591;28;47205;-62
2021/11/18 01:09:43;;;;;;;;;16.00;15.00;;;;;12.07;65.27;102347.19;2084472;28;47563;-62
2021/11/18 01:10:48;;;;;;;;;22.50;20.25;;;;;12.07;65.02;102354.28;2083996;28;47346;-63
2021/11/18 01:11:49;;;;;;;;;18.00;17.20;;;;;12.06;65.11;102350.69;2084438;28;47303;-63
2021/11/18 01:12:49;;;;;;;;;19.75;17.50;;;;;12.06;65.18;102352.47;2088281;28;47281;-63
2021/11/18 01:13:52;;;;;;;;;24.40;21.60;;;;;12.04;65.17;102354.25;2108955;27;47222;-63
2021/11/18 01:14:52;;;;;;;;;25.60;23.00;;;;;12.04;65.26;102360.47;2108038;27;47364;-63
2021/11/18 01:15:54;;;;;;;;;20.50;18.50;;;;;12.04;65.19;102362.25;2092619;28;46961;-64
2021/11/18 01:16:54;;;;;;;;;21.80;19.80;;;;;12.04;65.15;102364.91;2092062;28;47611;-64
2021/11/18 01:17:55;;;;;;;;;21.00;18.25;;;;;12.01;65.04;102363.13;2092617;28;45146;-63
2021/11/18 01:18:57;;;;;;;;;21.25;17.75;;;;;12.01;65.19;102368.47;2092206;28;46216;-63
2021/11/18 01:19:57;;;;;;;;;19.40;17.60;;;;;12.01;65.13;102370.22;2092394;28;46248;-63
2021/11/18 01:21:00;;;;;;;;;25.75;23.25;;;;;12.00;65.32;102365.81;2100179;28;46660;-63
2021/11/18 01:22:02;;;;;;;;;21.80;21.80;;;;;12.00;65.32;102372.00;2091633;28;46335;-64
2021/11/18 01:23:06;;;;;;;;;22.60;21.00;;;;;11.99;65.18;102372.03;2092202;28;48358;-63
2021/11/18 01:24:07;;;;;;;;;21.00;21.00;;;;;12.00;65.28;102373.78;2092374;28;46307;-63
2021/11/18 01:25:09;;;;;;;;;20.60;19.60;;;;;11.99;65.31;102366.69;2097446;27;45694;-63
2021/11/18 01:26:13;;;;;;;;;21.60;21.60;;;;;12.00;65.28;102371.13;2099600;28;47144;-63
2021/11/18 01:27:14;;;;;;;;;20.40;19.20;;;;;11.97;65.37;102366.69;2092295;28;47191;-63
2021/11/18 01:28:15;;;;;;;;;21.75;21.00;;;;;11.97;65.43;102369.34;2092461;27;47320;-63
2021/11/18 01:29:15;;;;;;;;;23.20;17.60;;;;;11.97;65.44;102372.03;2092080;28;47040;-63
2021/11/18 01:30:20;;;;;;;;;19.50;19.50;;;;;11.96;65.36;102369.38;2092362;28;47089;-62
2021/11/18 01:31:21;;;;;;;;;21.60;19.60;;;;;11.95;65.22;102371.16;2099963;28;47473;-62
2021/11/18 01:32:22;;;;;;;;;22.50;20.00;;;;;11.95;65.56;102375.56;2099964;28;46152;-63
2021/11/18 01:33:24;;;;;;;;;20.50;18.25;;;;;11.93;65.35;102367.56;2091832;28;47436;-63
2021/11/18 01:34:26;;;;;;;;;20.80;20.80;;;;;11.92;65.27;102368.47;2100341;28;47145;-63
2021/11/18 01:35:27;;;;;;;;;23.60;21.60;;;;;11.92;65.48;102370.22;2099914;28;45648;-63
2021/11/18 01:36:28;;;;;;;;;21.25;21.25;;;;;11.92;65.52;102359.59;2092481;28;48267;-63
2021/11/18 01:37:28;;;;;;;;;18.75;17.50;;;;;11.91;65.33;102374.66;2091778;28;47150;-62
2021/11/18 01:38:33;;;;;;;;;21.25;20.75;;;;;11.90;65.43;102372.91;2091898;28;45332;-62
2021/11/18 01:39:34;;;;;;;;;25.00;20.00;;;;;11.89;65.32;102371.13;2092464;28;47510;-62
2021/11/18 01:40:40;;;;;;;;;19.50;18.50;;;;;11.87;65.51;102372.91;2092354;28;48457;-63
2021/11/18 01:41:42;;;;;;;;;16.40;16.40;;;;;11.86;65.43;102368.47;2092696;28;46215;-63
2021/11/18 01:42:42;;;;;;;;;18.00;16.40;;;;;11.86;65.54;102370.25;2092063;28;47470;-63
2021/11/18 01:43:47;;;;;;;;;17.25;17.25;;;;;11.86;65.44;102372.91;2092232;28;48345;-63
2021/11/18 01:44:52;;;;;;;;;24.60;22.80;;;;;11.85;65.36;102380.00;2094130;28;47470;-62
2021/11/18 01:45:53;;;;;;;;;22.40;21.40;;;;;11.84;65.16;102372.91;2095755;27;47376;-63
2021/11/18 01:46:54;;;;;;;;;20.80;16.60;;;;;11.83;65.42;102375.59;2097785;28;46343;-62
2021/11/18 01:47:54;;;;;;;;;25.40;19.20;;;;;11.83;65.38;102373.81;2093262;28;47996;-62
2021/11/18 01:48:55;;;;;;;;;20.25;18.25;;;;;11.83;65.39;102375.59;2096887;27;47202;-62
2021/11/18 01:49:57;;;;;;;;;18.00;15.80;;;;;11.82;65.54;102374.69;2096799;28;45094;-62
2021/11/18 01:50:58;;;;;;;;;18.20;16.20;;;;;11.82;65.23;102376.47;2093247;27;48071;-62
2021/11/18 01:52:02;;;;;;;;;23.40;20.60;;;;;11.83;65.26;102372.94;2097717;28;46267;-62
2021/11/18 01:53:08;;;;;;;;;22.80;20.40;;;;;11.81;65.58;102375.56;2094955;28;48476;-62
2021/11/18 01:54:10;;;;;;;;;17.60;16.00;;;;;11.81;65.71;102378.22;2093922;27;47656;-62
2021/11/18 01:55:10;;;;;;;;;21.60;19.60;;;;;11.80;65.69;102384.44;2097978;28;48389;-63
2021/11/18 01:56:16;;;;;;;;;19.75;15.25;;;;;11.81;65.33;102386.19;2092301;28;47013;-63
2021/11/18 01:57:24;;;;;;;;;20.20;19.20;;;;;11.81;65.39;102387.97;2092041;28;46378;-63
2021/11/18 01:58:25;;;;;;;;;17.80;16.80;;;;;11.79;65.70;102393.28;2097190;28;47455;-62
2021/11/18 01:59:36;;;;;;;;;21.00;19.00;;;;;11.78;65.73;102391.50;2093934;28;48064;-63
2021/11/18 02:00:52;;;;;;;;;18.20;18.20;;;;;11.77;65.65;102392.38;2093175;28;46063;-63
2021/11/18 02:01:55;;;;;;;;;22.60;21.80;;;;;11.76;65.75;102391.50;2087581;28;47347;-63
2021/11/18 02:02:55;;;;;;;;;20.00;19.00;;;;;11.77;65.56;102395.03;2095273;28;47387;-63
2021/11/18 02:03:56;;;;;;;;;18.50;17.25;;;;;11.76;65.65;102388.84;2091944;28;48220;-62
2021/11/18 02:05:07;;;;;;;;;19.00;16.25;;;;;11.76;65.56;102390.59;2091957;27;47181;-62
2021/11/18 02:06:14;;;;;;;;;17.80;17.60;;;;;11.76;65.73;102390.59;2092351;27;48404;-63
2021/11/18 02:07:14;;;;;;;;;17.60;17.60;;;;;11.76;65.51;102386.16;2091926;27;45636;-63
2021/11/18 02:08:15;;;;;;;;;18.75;18.75;;;;;11.75;65.80;102386.19;2087181;28;45381;-62
2021/11/18 02:09:19;;;;;;;;;23.00;21.50;;;;;11.75;65.69;102387.06;2095224;28;47322;-63
2021/11/18 02:10:25;;;;;;;;;21.00;21.00;;;;;11.74;65.69;102387.06;2092553;28;48361;-63
2021/11/18 02:11:42;;;;;;;;;25.40;20.00;;;;;11.74;65.55;102387.06;2090078;28;47288;-62
2021/11/18 02:12:43;;;;;;;;;21.60;18.40;;;;;11.71;65.63;102385.31;2096549;28;45306;-62
2021/11/18 02:13:43;;;;;;;;;19.60;19.60;;;;;11.71;65.74;102389.72;2091786;28;46262;-62
2021/11/18 02:14:44;;;;;;;;;22.00;21.50;;;;;11.69;65.55;102386.19;2096499;27;47951;-62
2021/11/18 02:15:49;;;;;;;;;22.00;20.20;;;;;11.70;65.81;102387.97;2095776;28;47813;-63
2021/11/18 02:16:51;;;;;;;;;19.00;18.20;;;;;11.68;65.60;102385.28;2092328;27;48214;-64
2021/11/18 02:17:52;;;;;;;;;21.20;20.20;;;;;11.67;65.63;102391.47;2096331;27;48800;-63
2021/11/18 02:18:54;;;;;;;;;23.50;19.75;;;;;11.68;65.69;102389.72;2094229;28;46794;-63
2021/11/18 02:19:59;;;;;;;;;21.00;20.40;;;;;11.68;65.84;102389.72;2093952;27;48582;-63
2021/11/18 02:21:09;;;;;;;;;25.40;24.60;;;;;11.68;66.00;102392.38;2097208;28;46319;-64
2021/11/18 02:22:10;;;;;;;;;24.00;23.00;;;;;11.67;65.90;102385.28;2090791;28;47177;-64
2021/11/18 02:23:15;;;;;;;;;22.40;19.60;;;;;11.67;65.69;102388.81;2092697;28;48196;-62
2021/11/18 02:24:27;;;;;;;;;25.20;22.60;;;;;11.67;66.30;102391.47;2096768;28;47681;-63
2021/11/18 02:25:31;;;;;;;;;22.40;21.60;;;;;11.68;65.94;102395.03;2091859;28;45166;-63
2021/11/18 02:26:31;;;;;;;;;20.60;20.60;;;;;11.67;65.88;102393.25;2092061;27;48272;-63
2021/11/18 02:27:32;;;;;;;;;24.50;21.75;;;;;11.66;65.62;102388.81;2096817;28;47072;-64
2021/11/18 02:28:36;;;;;;;;;19.25;19.25;;;;;11.65;65.75;102393.25;2095306;28;46480;-63
2021/11/18 02:29:37;;;;;;;;;22.80;20.20;;;;;11.65;65.92;102389.72;2093681;27;47334;-64
2021/11/18 02:30:40;;;;;;;;;17.20;16.60;;;;;11.65;65.79;102392.38;2091642;28;47417;-64
2021/11/18 02:31:49;;;;;;;;;23.80;20.00;;;;;11.65;65.72;102387.94;2093978;28;45509;-63
2021/11/18 02:32:50;;;;;;;;;22.00;21.40;;;;;11.65;65.73;102389.72;2093975;27;47212;-62
2021/11/18 02:33:51;;;;;;;;;21.20;21.00;;;;;11.65;65.78;102389.72;2091934;27;47587;-63
2021/11/18 02:34:58;;;;;;;;;23.20;23.20;;;;;11.65;65.96;102387.94;2093677;28;47515;-63
2021/11/18 02:35:59;;;;;;;;;18.80;18.80;;;;;11.64;65.70;102382.63;2095004;27;47577;-63
2021/11/18 02:36:59;;;;;;;;;21.40;21.20;;;;;11.64;65.74;102383.50;2097288;28;48456;-62
2021/11/18 02:38:00;;;;;;;;;13.50;10.75;;;;;11.64;65.70;102391.47;2093210;28;46927;-63
2021/11/18 02:39:01;;;;;;;;;24.25;23.00;;;;;11.64;65.90;102388.81;2096099;27;47176;-64
2021/11/18 02:40:06;;;;;;;;;27.80;24.40;;;;;11.64;65.75;102394.16;2096608;28;47654;-64
2021/11/18 02:41:10;;;;;;;;;20.40;19.20;;;;;11.65;65.93;102398.56;2084086;28;47624;-64
2021/11/18 02:42:12;;;;;;;;;19.40;18.60;;;;;11.65;65.71;102395.03;2096527;28;48304;-65
2021/11/18 02:43:15;;;;;;;;;24.80;22.40;;;;;11.65;65.97;102397.69;2096114;28;47340;-63
2021/11/18 02:44:15;;;;;;;;;23.80;20.60;;;;;11.64;65.96;102388.81;2093240;28;45689;-63
2021/11/18 02:45:20;;;;;;;;;23.00;21.00;;;;;11.64;65.88;102390.59;2099891;27;45454;-61
2021/11/18 02:46:21;;;;;;;;;24.60;21.80;;;;;11.64;65.87;102390.59;2095431;28;46677;-64
2021/11/18 02:47:21;;;;;;;;;25.75;24.00;;;;;11.64;65.72;102388.81;2096255;27;46008;-66
2021/11/18 02:48:22;;;;;;;;;24.00;22.25;;;;;11.65;65.81;102387.94;2099377;28;47099;-63
2021/11/18 02:49:22;;;;;;;;;19.75;19.75;;;;;11.64;65.61;102387.94;2094694;27;47373;-61
2021/11/18 02:50:32;;;;;;;;;24.00;21.75;;;;;11.63;65.77;102381.75;2098167;28;47668;-62
2021/11/18 02:51:33;;;;;;;;;23.60;21.20;;;;;11.63;65.91;102383.50;2098349;28;46281;-63
2021/11/18 02:52:34;;;;;;;;;21.60;21.60;;;;;11.62;65.66;102382.63;2095020;27;46997;-63
2021/11/18 02:53:35;;;;;;;;;12.20;11.20;;;;;11.62;65.83;102387.94;2097905;27;48130;-64
2021/11/18 02:54:36;;;;;;;;;23.40;22.40;;;;;11.61;65.66;102391.50;2097325;28;47280;-62
2021/11/18 02:55:42;;;;;;;;;21.80;21.80;;;;;11.61;65.74;102391.50;2094630;27;47653;-62
2021/11/18 02:56:42;;;;;;;;;28.00;24.00;;;;;11.61;65.68;102401.25;2094089;27;46248;-62
2021/11/18 02:57:43;;;;;;;;;20.75;20.75;;;;;11.61;65.59;102402.13;2089470;28;47296;-62
2021/11/18 02:58:45;;;;;;;;;20.75;20.50;;;;;11.63;65.74;102410.09;2094612;28;48429;-62
2021/11/18 02:59:45;;;;;;;;;24.60;22.00;;;;;11.62;65.61;102408.34;2096235;28;45472;-62
2021/11/18 03:00:55;;;;;;;;;25.00;21.50;;;;;11.62;65.68;102411.00;2091643;27;46196;-62
2021/11/18 03:01:56;;;;;;;;;22.20;20.40;;;;;11.62;65.68;102408.34;2086745;28;48508;-63
2021/11/18 03:02:56;;;;;;;;;23.60;23.60;;;;;11.62;65.71;102409.22;2095071;27;47412;-62
2021/11/18 03:03:58;;;;;;;;;22.50;21.25;;;;;11.63;65.50;102402.13;2091365;28;47450;-62
2021/11/18 03:04:58;;;;;;;;;20.20;18.80;;;;;11.62;65.55;102398.59;2086531;28;46289;-61
2021/11/18 03:05:59;;;;;;;;;25.75;22.75;;;;;11.61;65.61;102399.47;2087903;28;45529;-62
2021/11/18 03:07:00;;;;;;;;;23.75;23.50;;;;;11.60;65.65;102397.69;2085445;27;47744;-62
2021/11/18 03:08:01;;;;;;;;;21.00;20.60;;;;;11.60;65.68;102403.03;2093805;28;47208;-63
2021/11/18 03:09:02;;;;;;;;;22.75;21.50;;;;;11.59;65.51;102403.03;2084164;28;47348;-62
2021/11/18 03:10:06;;;;;;;;;21.60;20.80;;;;;11.57;65.70;102407.44;2069432;28;47134;-62
2021/11/18 03:11:07;;;;;;;;;24.60;24.60;;;;;11.56;65.59;102411.88;2084714;28;47077;-62
2021/11/18 03:12:08;;;;;;;;;22.00;20.50;;;;;11.55;65.56;102410.09;2092164;28;47888;-62
2021/11/18 03:13:09;;;;;;;;;20.40;19.40;;;;;11.54;65.84;102405.66;2095575;27;48269;-62
2021/11/18 03:14:09;;;;;;;;;22.00;19.25;;;;;11.54;65.79;102410.09;2095428;28;47019;-63
2021/11/18 03:15:12;;;;;;;;;22.75;21.00;;;;;11.54;65.58;102420.72;2091324;28;45251;-62
2021/11/18 03:16:14;;;;;;;;;21.20;19.40;;;;;11.53;65.61;102410.97;2095004;28;47223;-62
2021/11/18 03:17:15;;;;;;;;;16.60;16.60;;;;;11.52;65.92;102410.09;2094415;28;47339;-62
2021/11/18 03:18:15;;;;;;;;;22.75;22.75;;;;;11.53;65.89;102418.94;2100819;27;47645;-62
2021/11/18 03:19:16;;;;;;;;;21.80;21.80;;;;;11.52;65.84;102415.41;2103428;27;47564;-62
2021/11/18 03:20:19;;;;;;;;;20.75;19.25;;;;;11.52;65.67;102415.41;2092685;28;47906;-62
2021/11/18 03:21:24;;;;;;;;;21.40;20.00;;;;;11.52;65.55;102411.84;2093557;27;47505;-62
2021/11/18 03:22:25;;;;;;;;;20.20;18.60;;;;;11.51;65.51;102416.28;2095353;28;45799;-64
2021/11/18 03:23:27;;;;;;;;;21.50;20.25;;;;;11.50;65.88;102415.41;2091984;28;47721;-63
2021/11/18 03:24:28;;;;;;;;;23.00;21.20;;;;;11.50;65.78;102411.84;2094941;27;47388;-62
2021/11/18 03:25:32;;;;;;;;;20.25;19.25;;;;;11.49;65.63;102410.09;2090870;27;47948;-63
2021/11/18 03:26:34;;;;;;;;;21.20;19.80;;;;;11.48;65.87;102413.63;2091213;28;47525;-63
2021/11/18 03:27:35;;;;;;;;;20.40;20.20;;;;;11.48;65.83;102413.63;2095393;28;47644;-62
2021/11/18 03:28:36;;;;;;;;;22.40;21.40;;;;;11.48;65.89;102410.97;2094103;28;47659;-62
2021/11/18 03:29:36;;;;;;;;;25.00;21.75;;;;;11.49;65.79;102412.75;2091647;28;46094;-62
2021/11/18 03:30:42;;;;;;;;;19.75;18.50;;;;;11.48;65.66;102410.97;2095462;28;48552;-62
2021/11/18 03:31:43;;;;;;;;;19.20;18.20;;;;;11.46;65.84;102405.66;2093641;28;47447;-62
2021/11/18 03:32:43;;;;;;;;;21.25;20.00;;;;;11.45;65.74;102414.53;2093176;27;45531;-62
2021/11/18 03:33:57;;;;;;;;;20.50;20.00;;;;;11.44;65.22;102415.41;2095407;28;48051;-65
2021/11/18 03:34:58;;;;;;;;;20.80;19.40;;;;;11.43;65.47;102424.28;2093504;28;45360;-62
2021/11/18 03:36:01;;;;;;;;;22.50;20.00;;;;;11.42;65.67;102413.59;2093102;28;48472;-64
2021/11/18 03:37:03;;;;;;;;;23.20;19.80;;;;;11.41;65.58;102425.13;2086200;28;45254;-64
2021/11/18 03:38:04;;;;;;;;;24.60;22.60;;;;;11.39;65.56;102425.13;2092688;27;48058;-64
2021/11/18 03:39:08;;;;;;;;;21.40;20.40;;;;;11.37;65.78;102416.25;2101210;27;48398;-64
2021/11/18 03:40:10;;;;;;;;;21.40;19.60;;;;;11.38;65.61;102419.81;2095263;28;47182;-62
2021/11/18 03:41:12;;;;;;;;;20.60;20.20;;;;;11.36;65.78;102414.50;2091813;28;47842;-62
2021/11/18 03:42:13;;;;;;;;;22.40;21.00;;;;;11.33;65.88;102409.19;2094626;27;48347;-63
2021/11/18 03:43:14;;;;;;;;;17.80;17.40;;;;;11.33;65.84;102413.59;2094866;27;48281;-62
2021/11/18 03:44:17;;;;;;;;;20.25;19.00;;;;;11.32;65.85;102417.16;2099378;28;47306;-64
2021/11/18 03:45:19;;;;;;;;;20.80;20.40;;;;;11.30;65.74;102417.13;2106408;27;48149;-63
2021/11/18 03:46:25;;;;;;;;;23.20;20.80;;;;;11.29;65.77;102415.34;2093841;28;47214;-63
2021/11/18 03:47:26;;;;;;;;;24.60;20.40;;;;;11.29;66.17;102419.78;2094869;27;47365;-63
2021/11/18 03:48:29;;;;;;;;;20.50;18.50;;;;;11.28;65.74;102413.56;2098779;28;47970;-62
2021/11/18 03:49:31;;;;;;;;;24.20;20.20;;;;;11.29;66.09;102419.78;2093152;28;46582;-63
2021/11/18 03:50:31;;;;;;;;;23.00;23.00;;;;;11.30;66.00;102413.56;2096047;28;47382;-62
2021/11/18 03:51:32;;;;;;;;;22.25;19.75;;;;;11.29;65.87;102412.69;2105189;27;45527;-63
2021/11/18 03:52:33;;;;;;;;;25.25;21.00;;;;;11.29;65.85;102417.13;2093731;27;48719;-63
2021/11/18 03:53:34;;;;;;;;;23.25;21.75;;;;;11.30;66.13;102413.56;2097831;28;48497;-62
2021/11/18 03:54:37;;;;;;;;;21.20;20.20;;;;;11.30;66.03;102419.78;2095890;28;46641;-64
2021/11/18 03:55:37;;;;;;;;;17.40;17.40;;;;;11.29;65.81;102422.44;2094109;27;48123;-63
2021/11/18 03:56:39;;;;;;;;;18.75;18.00;;;;;11.28;65.81;102425.97;2093998;28;48848;-62
2021/11/18 03:57:40;;;;;;;;;22.20;22.20;;;;;11.26;66.01;102425.97;2091755;28;47361;-62
2021/11/18 03:58:42;;;;;;;;;20.40;19.80;;;;;11.25;66.07;102432.19;2094854;27;48153;-62
2021/11/18 03:59:47;;;;;;;;;20.80;20.20;;;;;11.23;65.80;102433.94;2096029;28;47322;-63
2021/11/18 04:00:47;;;;;;;;;29.60;24.40;;;;;11.23;65.97;102430.41;2091077;28;48574;-63
2021/11/18 04:01:50;;;;;;;;;24.00;22.25;;;;;11.22;65.93;102432.19;2090804;28;47417;-63
2021/11/18 04:02:51;;;;;;;;;27.60;22.40;;;;;11.21;66.16;102435.72;2094071;27;47179;-63
2021/11/18 04:03:54;;;;;;;;;23.25;23.25;;;;;11.23;65.97;102430.41;2091472;28;47986;-63
2021/11/18 04:05:00;;;;;;;;;23.00;21.60;;;;;11.21;65.92;102427.75;2091067;28;47304;-63
2021/11/18 04:06:02;;;;;;;;;22.20;21.20;;;;;11.20;66.02;102421.56;2094419;28;49069;-62
2021/11/18 04:07:04;;;;;;;;;25.60;25.40;;;;;11.20;66.16;102425.97;2092760;27;47715;-63
2021/11/18 04:08:05;;;;;;;;;26.20;22.60;;;;;11.20;66.13;102426.88;2095653;28;46232;-63
2021/11/18 04:09:06;;;;;;;;;24.40;23.40;;;;;11.20;65.71;102429.53;2092323;27;47816;-63
2021/11/18 04:10:10;;;;;;;;;25.80;24.80;;;;;11.21;65.86;102430.41;2093777;28;48270;-64
2021/11/18 04:11:11;;;;;;;;;21.00;20.20;;;;;11.20;66.01;102431.28;2080982;28;48130;-63
2021/11/18 04:12:14;;;;;;;;;23.75;22.25;;;;;11.19;65.90;102429.53;2083198;28;45256;-63
2021/11/18 04:13:15;;;;;;;;;23.60;22.00;;;;;11.19;66.06;102438.38;2095064;28;47115;-63
2021/11/18 04:14:17;;;;;;;;;22.25;21.50;;;;;11.18;66.06;102433.94;2096738;28;45378;-63
2021/11/18 04:15:21;;;;;;;;;21.20;20.00;;;;;11.19;65.91;102435.72;2083648;28;48236;-62
2021/11/18 04:16:21;;;;;;;;;21.40;19.40;;;;;11.18;65.81;102436.59;2088597;28;45485;-63
2021/11/18 04:17:22;;;;;;;;;24.75;24.00;;;;;11.18;65.92;102428.63;2095482;28;48444;-63
2021/11/18 04:18:24;;;;;;;;;25.25;22.50;;;;;11.18;66.05;102449.00;2094163;27;48596;-63
2021/11/18 04:19:24;;;;;;;;;28.60;24.20;;;;;11.16;65.85;102443.66;2097110;28;47283;-63
2021/11/18 04:20:26;;;;;;;;;22.75;20.25;;;;;11.16;65.83;102448.09;2094749;28;47492;-63
2021/11/18 04:21:31;;;;;;;;;19.80;19.80;;;;;11.15;65.94;102446.31;2094685;27;47192;-62
2021/11/18 04:22:31;;;;;;;;;26.00;22.00;;;;;11.15;66.15;102448.97;2097382;28;45456;-62
2021/11/18 04:23:32;;;;;;;;;22.75;21.25;;;;;11.15;66.17;102455.19;2092918;28;46255;-62
2021/11/18 04:24:33;;;;;;;;;21.50;21.50;;;;;11.14;66.22;102456.06;2095738;28;48080;-63
2021/11/18 04:25:36;;;;;;;;;26.80;24.00;;;;;11.13;66.29;102451.63;2092001;28;47488;-62
2021/11/18 04:26:38;;;;;;;;;15.60;13.80;;;;;11.13;66.08;102454.28;2092330;28;45440;-62
2021/11/18 04:27:41;;;;;;;;;23.40;22.80;;;;;11.14;66.04;102455.16;2096245;28;48314;-63
2021/11/18 04:28:42;;;;;;;;;22.60;22.60;;;;;11.14;66.23;102456.06;2095570;28;48496;-62
2021/11/18 04:29:43;;;;;;;;;19.75;19.75;;;;;11.15;66.16;102462.25;2093184;27;47308;-62
2021/11/18 04:30:57;;;;;;;;;21.60;21.60;;;;;11.15;66.11;102456.94;2096609;27;47236;-62
2021/11/18 04:32:05;;;;;;;;;26.60;23.80;;;;;11.15;65.81;102448.97;2096608;28;46053;-63
2021/11/18 04:33:06;;;;;;;;;28.60;25.60;;;;;11.16;65.96;102453.41;2092776;28;46342;-63
2021/11/18 04:34:08;;;;;;;;;27.00;27.00;;;;;11.16;65.82;102456.06;2096545;28;48394;-63
2021/11/18 04:35:09;;;;;;;;;24.60;24.00;;;;;11.17;66.06;102457.84;2096140;27;48113;-63
2021/11/18 04:36:12;;;;;;;;;23.60;23.60;;;;;11.16;65.90;102454.28;2092842;27;48141;-63
2021/11/18 04:37:13;;;;;;;;;24.20;24.00;;;;;11.15;65.75;102457.84;2095590;28;47337;-63
2021/11/18 04:38:13;;;;;;;;;23.00;22.00;;;;;11.15;65.64;102460.50;2094456;28;48351;-63
2021/11/18 04:39:14;;;;;;;;;24.75;24.00;;;;;11.14;65.85;102458.72;2094157;27;47231;-62
2021/11/18 04:40:16;;;;;;;;;28.75;23.00;;;;;11.15;65.83;102459.59;2092908;27;47258;-62
2021/11/18 04:41:16;;;;;;;;;29.20;25.80;;;;;11.14;65.80;102464.03;2092601;28;48225;-63
2021/11/18 04:42:18;;;;;;;;;26.00;23.25;;;;;11.13;65.85;102462.25;2086706;28;48320;-63
2021/11/18 04:43:20;;;;;;;;;30.00;27.60;;;;;11.14;65.79;102463.16;2095558;28;48219;-63